Time;durP1;ratioP1;P1;durP2;ratioP2;P2;SDS_P1;SDS_P2;PMS_P1;PMS_P2;Temp;Humidity;BMP_temperature;BMP_pressure;BME280_temperature;BME280_humidity;BME280_pressure;Samples;Min_cycle;Max_cycle;Signal;HPM_P1;HPM_P2
2022/06/17 00:00:11;;;;;;;15.95;13.80;;;11.40;99.90;;;;;;5072333;28;20040;-47
2022/06/17 00:02:37;;;;;;;15.82;13.35;;;11.20;99.90;;;;;;5071820;28;20044;-47
2022/06/17 00:05:03;;;;;;;14.80;13.30;;;11.10;99.90;;;;;;5071934;28;20137;-46
2022/06/17 00:07:29;;;;;;;14.60;13.10;;;11.50;99.90;;;;;;5072489;28;20491;-47
2022/06/17 00:09:54;;;;;;;16.25;13.25;;;11.30;99.90;;;;;;5072242;28;20030;-44
2022/06/17 00:12:22;;;;;;;17.55;13.68;;;11.40;99.90;;;;;;5071848;28;20044;-47
2022/06/17 00:17:32;;;;;;;17.92;15.63;;;11.30;99.90;;;;;;5073311;28;20481;-47
2022/06/17 00:19:57;;;;;;;17.23;15.40;;;11.20;99.90;;;;;;5072508;28;20114;-44
2022/06/17 00:22:25;;;;;;;17.83;15.93;;;12.40;99.90;;;;;;5071890;28;20067;-46
2022/06/17 00:24:53;;;;;;;19.83;16.23;;;13.10;99.90;;;;;;5072095;28;20039;-44
2022/06/17 00:27:19;;;;;;;19.63;15.93;;;11.00;99.90;;;;;;5068046;28;20083;-47
2022/06/17 00:29:45;;;;;;;21.50;17.23;;;11.30;99.90;;;;;;5072103;28;20795;-48
2022/06/17 00:32:10;;;;;;;18.90;16.75;;;12.10;99.90;;;;;;5071911;28;20043;-50
2022/06/17 00:34:36;;;;;;;18.83;16.27;;;11.30;99.90;;;;;;5072945;28;20177;-48
2022/06/17 00:37:03;;;;;;;16.63;15.02;;;11.30;99.90;;;;;;5071883;28;20641;-47
2022/06/17 00:39:32;;;;;;;20.45;16.48;;;11.40;99.90;;;;;;5070886;28;20909;-48
2022/06/17 00:42:08;;;;;;;17.38;15.57;;;11.30;99.90;;;;;;5072373;28;20048;-47
2022/06/17 00:44:51;;;;;;;18.10;16.20;;;11.20;99.90;;;;;;5073027;28;20059;-47
2022/06/17 00:47:44;;;;;;;21.13;17.58;;;11.30;99.90;;;;;;5072194;28;20079;-48
2022/06/17 00:50:46;;;;;;;20.63;17.70;;;11.40;99.90;;;;;;5072823;28;20039;-47
2022/06/17 00:53:25;;;;;;;20.83;18.63;;;11.70;99.90;;;;;;5010322;28;20049;-47
2022/06/17 00:55:57;;;;;;;23.38;19.75;;;11.50;99.90;;;;;;5009089;28;20064;-44
2022/06/17 00:58:44;;;;;;;18.90;17.02;;;12.60;99.90;;;;;;5007827;28;20497;-44
2022/06/17 01:01:11;;;;;;;20.25;17.67;;;11.60;99.90;;;;;;4968996;28;20050;-45
2022/06/17 01:03:37;;;;;;;18.48;16.58;;;11.70;99.90;;;;;;4970900;28;20057;-47
2022/06/17 01:06:11;;;;;;;21.58;15.85;;;11.80;99.90;;;;;;4969925;28;20069;-45
2022/06/17 01:11:38;;;;;;;19.13;16.08;;;12.30;99.90;;;;;;4969488;28;20057;-45
2022/06/17 01:14:06;;;;;;;19.45;15.15;;;11.80;99.90;;;;;;4969628;28;20042;-44
2022/06/17 01:16:37;;;;;;;21.77;16.33;;;12.80;99.90;;;;;;4969241;28;21185;-44
2022/06/17 01:19:15;;;;;;;20.08;16.75;;;11.80;99.90;;;;;;4969846;28;20435;-44
2022/06/17 01:22:05;;;;;;;19.70;16.30;;;11.70;99.90;;;;;;4969512;28;20397;-43
2022/06/17 01:24:31;;;;;;;21.95;16.88;;;11.80;99.90;;;;;;4968639;28;20057;-46
2022/06/17 01:26:57;;;;;;;19.55;17.02;;;11.70;99.90;;;;;;4968554;28;20045;-46
2022/06/17 01:29:23;;;;;;;20.52;16.77;;;11.80;99.90;;;;;;4992953;28;20040;-43
2022/06/17 01:31:52;;;;;;;18.23;16.23;;;11.70;99.90;;;;;;5029100;28;20128;-43
2022/06/17 01:34:18;;;;;;;18.58;15.73;;;13.80;99.90;;;;;;5047675;28;20096;-43
2022/06/17 01:36:47;;;;;;;18.65;16.65;;;11.70;99.90;;;;;;5046848;28;20144;-43
2022/06/17 01:39:13;;;;;;;23.25;15.95;;;11.70;99.90;;;;;;5067475;28;20168;-45
2022/06/17 01:41:41;;;;;;;16.90;14.82;;;11.70;99.90;;;;;;5071453;28;20059;-44
2022/06/17 01:44:17;;;;;;;22.17;15.20;;;11.60;99.90;;;;;;5071106;28;20089;-44
2022/06/17 01:46:45;;;;;;;16.48;13.75;;;11.60;99.90;;;;;;5071454;28;20264;-45
2022/06/17 01:49:19;;;;;;;16.92;13.40;;;12.10;99.90;;;;;;5070126;28;20032;-42
2022/06/17 01:51:51;;;;;;;18.13;13.55;;;11.70;99.90;;;;;;5070999;28;20068;-44
2022/06/17 01:54:44;;;;;;;16.77;13.15;;;11.70;99.90;;;;;;5070919;28;20031;-45
2022/06/17 01:57:16;;;;;;;14.35;12.80;;;12.00;99.90;;;;;;5070793;28;20036;-43
2022/06/17 01:59:52;;;;;;;16.48;13.55;;;11.90;99.90;;;;;;5071969;28;20133;-45
2022/06/17 02:02:18;;;;;;;15.48;12.57;;;13.10;99.90;;;;;;5070146;28;20051;-44
2022/06/17 02:04:53;;;;;;;15.27;13.50;;;11.70;99.90;;;;;;5071914;28;20558;-43
2022/06/17 02:07:44;;;;;;;14.60;12.93;;;12.00;99.90;;;;;;5071760;28;20036;-46
2022/06/17 02:10:10;;;;;;;17.30;12.45;;;11.80;99.90;;;;;;5075119;28;20060;-43
2022/06/17 02:12:36;;;;;;;16.33;13.55;;;12.70;99.90;;;;;;5076203;28;20771;-44
2022/06/17 02:15:03;;;;;;;19.17;13.15;;;11.80;99.90;;;;;;5058028;28;20089;-43
2022/06/17 02:17:32;;;;;;;18.90;14.10;;;11.80;99.90;;;;;;5075522;28;20168;-44
2022/06/17 02:19:58;;;;;;;17.90;14.02;;;12.90;99.90;;;;;;5075109;28;20043;-44
2022/06/17 02:22:29;;;;;;;17.33;13.93;;;11.80;99.90;;;;;;5077310;28;20051;-44
2022/06/17 02:25:04;;;;;;;16.00;14.35;;;11.50;99.90;;;;;;5076920;28;20068;-42
2022/06/17 02:27:31;;;;;;;16.67;14.05;;;11.60;99.90;;;;;;5075881;28;20181;-45
2022/06/17 02:29:59;;;;;;;17.00;14.23;;;12.80;99.90;;;;;;5075223;28;20089;-43
2022/06/17 02:32:27;;;;;;;16.88;14.40;;;11.40;99.90;;;;;;5075449;28;20092;-45
2022/06/17 02:35:02;;;;;;;16.20;13.27;;;11.50;99.90;;;;;;5057120;28;20775;-43
2022/06/17 02:37:31;;;;;;;16.80;14.40;;;11.50;99.90;;;;;;5074291;28;20043;-43
2022/06/17 02:40:00;;;;;;;17.15;13.85;;;13.30;99.90;;;;;;5073985;28;20134;-48
2022/06/17 02:42:30;;;;;;;14.93;12.43;;;11.40;99.90;;;;;;5074159;28;20418;-44
2022/06/17 02:45:00;;;;;;;14.75;13.15;;;11.50;99.90;;;;;;5074266;28;20040;-43
2022/06/17 02:47:26;;;;;;;16.10;14.13;;;12.50;99.90;;;;;;5073601;28;20068;-42
2022/06/17 02:49:53;;;;;;;15.60;12.80;;;11.20;99.90;;;;;;5073988;28;20044;-43
2022/06/17 02:52:25;;;;;;;17.65;13.02;;;11.40;99.90;;;;;;5073622;28;20504;-43
2022/06/17 02:54:56;;;;;;;15.70;12.55;;;12.50;99.90;;;;;;5074377;28;20044;-43
2022/06/17 02:57:26;;;;;;;15.32;12.63;;;11.40;99.90;;;;;;5073340;28;20132;-43
2022/06/17 03:00:01;;;;;;;16.98;13.27;;;11.90;99.90;;;;;;5073968;28;20068;-41
2022/06/17 03:02:40;;;;;;;13.38;11.98;;;11.80;99.90;;;;;;5074107;28;20123;-40
2022/06/17 03:05:31;;;;;;;16.35;12.27;;;11.30;99.90;;;;;;5073575;28;20524;-41
2022/06/17 03:07:59;;;;;;;14.93;11.90;;;11.30;99.90;;;;;;5073605;28;20044;-41
2022/06/17 03:10:36;;;;;;;15.60;12.75;;;11.50;99.90;;;;;;5073074;28;20520;-41
2022/06/17 03:13:10;;;;;;;16.00;12.38;;;11.40;99.90;;;;;;5073558;28;20040;-40
2022/06/17 03:15:39;;;;;;;13.95;12.32;;;11.80;99.90;;;;;;5070749;28;20048;-41
2022/06/17 03:18:05;;;;;;;15.20;11.57;;;11.50;99.90;;;;;;5072843;28;20069;-41
2022/06/17 03:20:34;;;;;;;17.00;12.52;;;11.70;99.90;;;;;;5073156;28;20052;-40
2022/06/17 03:23:29;;;;;;;13.18;11.68;;;11.60;99.90;;;;;;5073900;28;20424;-40
2022/06/17 03:26:10;;;;;;;17.30;13.57;;;11.10;99.90;;;;;;5071480;28;20512;-41
2022/06/17 03:28:49;;;;;;;14.15;12.43;;;12.00;99.90;;;;;;5072737;28;20178;-40
2022/06/17 03:31:18;;;;;;;15.70;12.65;;;12.30;99.90;;;;;;5073411;28;20055;-40
2022/06/17 03:33:53;;;;;;;15.43;11.50;;;11.70;99.90;;;;;;5072774;28;20048;-40
2022/06/17 03:36:45;;;;;;;24.90;11.98;;;12.60;99.90;;;;;;5073922;28;20077;-40
2022/06/17 03:39:35;;;;;;;18.55;12.02;;;11.80;99.90;;;;;;5073428;28;20079;-41
2022/06/17 03:42:20;;;;;;;14.57;11.70;;;11.80;99.90;;;;;;5072525;28;20863;-40
2022/06/17 03:45:03;;;;;;;15.00;11.68;;;11.60;99.90;;;;;;5073379;28;20048;-43
2022/06/17 03:47:59;;;;;;;15.52;11.15;;;11.90;99.90;;;;;;5073405;28;20142;-40
2022/06/17 03:50:35;;;;;;;15.40;11.80;;;11.80;99.90;;;;;;5073255;28;20583;-41
2022/06/17 03:53:05;;;;;;;14.30;10.98;;;11.90;99.90;;;;;;5072720;28;20603;-40
2022/06/17 03:55:33;;;;;;;15.10;10.60;;;13.60;99.90;;;;;;5072540;28;20036;-41
2022/06/17 03:58:01;;;;;;;12.95;9.73;;;11.90;99.90;;;;;;5072890;28;20036;-44
2022/06/17 04:00:52;;;;;;;12.15;9.95;;;12.10;99.90;;;;;;5072652;28;20573;-43
2022/06/17 04:03:28;;;;;;;13.05;9.27;;;12.20;99.90;;;;;;5072387;28;20036;-43
2022/06/17 04:06:09;;;;;;;11.82;10.23;;;12.20;99.90;;;;;;5071909;28;20044;-40
2022/06/17 04:08:54;;;;;;;13.87;9.83;;;13.10;99.90;;;;;;5071629;28;20127;-41
2022/06/17 04:11:23;;;;;;;12.13;9.98;;;13.80;99.90;;;;;;5071967;28;20043;-42
2022/06/17 04:13:49;;;;;;;12.15;9.50;;;12.50;99.90;;;;;;5071887;28;20039;-42
2022/06/17 04:16:25;;;;;;;13.98;9.13;;;12.60;99.90;;;;;;5072165;28;20048;-42
2022/06/17 04:18:51;;;;;;;15.18;9.07;;;12.70;99.90;;;;;;5072266;28;20260;-42
2022/06/17 04:21:18;;;;;;;11.95;8.95;;;12.80;99.90;;;;;;5071906;28;20989;-40
2022/06/17 04:23:47;;;;;;;13.00;9.45;;;15.10;99.90;;;;;;5073209;28;20044;-43
2022/06/17 04:26:26;;;;;;;14.70;9.68;;;13.00;99.90;;;;;;5072598;28;20051;-41
2022/06/17 04:28:58;;;;;;;14.10;10.27;;;13.20;99.90;;;;;;5071813;28;20036;-42
2022/06/17 04:31:26;;;;;;;12.40;9.65;;;14.40;99.90;;;;;;5070102;28;20067;-42
2022/06/17 04:33:59;;;;;;;15.00;9.88;;;13.50;99.90;;;;;;5070238;28;20036;-42
2022/06/17 04:36:45;;;;;;;14.80;9.82;;;13.40;99.90;;;;;;5069072;28;20093;-40
2022/06/17 04:39:28;;;;;;;11.25;8.77;;;13.40;99.90;;;;;;5071357;28;20051;-41
2022/06/17 04:41:57;;;;;;;12.38;8.32;;;13.70;99.90;;;;;;5072839;28;20044;-41
2022/06/17 04:44:23;;;;;;;11.90;9.02;;;13.60;99.90;;;;;;5071737;28;20150;-41
2022/06/17 04:47:01;;;;;;;15.60;8.60;;;13.90;99.90;;;;;;5072221;28;20407;-42
2022/06/17 04:49:32;;;;;;;12.40;7.95;;;13.80;99.90;;;;;;5072352;28;20533;-41
2022/06/17 04:52:02;;;;;;;11.35;8.52;;;13.90;99.90;;;;;;5072878;28;20539;-42
2022/06/17 04:54:30;;;;;;;11.23;8.43;;;14.90;99.90;;;;;;5073123;28;20766;-43
2022/06/17 04:56:58;;;;;;;17.23;8.82;;;13.90;99.90;;;;;;5071130;28;20583;-41
2022/06/17 04:59:58;;;;;;;10.13;9.05;;;15.20;99.90;;;;;;5072255;28;21066;-42
2022/06/17 05:02:26;;;;;;;11.13;8.95;;;15.00;99.90;;;;;;5009521;28;20045;-43
2022/06/17 05:05:01;;;;;;;14.35;9.63;;;15.40;99.90;;;;;;4993677;28;20128;-41
2022/06/17 05:07:31;;;;;;;13.65;8.98;;;14.20;99.90;;;;;;5009415;28;20510;-41
2022/06/17 05:10:08;;;;;;;14.68;9.27;;;14.20;99.90;;;;;;5009071;28;20110;-42
2022/06/17 05:12:36;;;;;;;12.82;8.80;;;14.40;99.90;;;;;;4991707;28;20129;-41
2022/06/17 05:15:06;;;;;;;14.90;8.95;;;14.40;99.90;;;;;;5008273;28;20038;-41
2022/06/17 05:17:33;;;;;;;16.23;9.05;;;14.60;99.90;;;;;;5007352;28;20403;-41
2022/06/17 05:19:58;;;;;;;13.82;8.70;;;15.60;99.90;;;;;;5007873;28;20406;-40
2022/06/17 05:22:34;;;;;;;10.75;8.40;;;14.60;99.90;;;;;;5009743;28;20049;-41
2022/06/17 05:25:02;;;;;;;10.75;9.15;;;16.50;99.90;;;;;;5007833;28;20089;-44
2022/06/17 05:27:28;;;;;;;12.93;8.90;;;14.60;99.90;;;;;;5007924;28;20973;-43
2022/06/17 05:29:56;;;;;;;14.65;8.90;;;14.40;99.90;;;;;;4992699;28;20580;-40
2022/06/17 05:32:22;;;;;;;16.15;9.75;;;15.10;99.90;;;;;;5007605;28;20045;-42
2022/06/17 05:34:49;;;;;;;14.70;9.43;;;14.60;99.90;;;;;;5007303;28;20073;-42
2022/06/17 05:37:15;;;;;;;17.73;9.80;;;14.50;99.90;;;;;;5007140;28;20107;-41
2022/06/17 05:39:41;;;;;;;12.95;9.70;;;14.60;99.90;;;;;;5063757;28;20615;-41
2022/06/17 05:42:07;;;;;;;16.55;9.82;;;16.50;99.90;;;;;;5070267;28;20044;-41
2022/06/17 05:44:33;;;;;;;13.43;9.90;;;14.80;99.90;;;;;;5072233;28;20063;-41
2022/06/17 05:46:59;;;;;;;12.30;9.55;;;15.20;99.90;;;;;;5075694;28;20377;-41
2022/06/17 05:49:25;;;;;;;12.57;10.07;;;16.10;99.90;;;;;;5074449;28;20035;-44
2022/06/17 05:51:53;;;;;;;14.27;9.75;;;15.50;99.90;;;;;;5074887;28;21031;-41
2022/06/17 05:54:20;;;;;;;12.00;9.32;;;14.70;99.90;;;;;;5075484;28;20043;-46
2022/06/17 05:56:46;;;;;;;14.50;9.07;;;15.00;99.90;;;;;;5073918;28;20609;-42
2022/06/17 05:59:12;;;;;;;15.05;10.25;;;15.10;99.90;;;;;;5073295;28;20065;-42
2022/06/17 06:01:38;;;;;;;12.65;10.57;;;16.50;99.90;;;;;;5074758;28;20146;-41
2022/06/17 06:04:04;;;;;;;13.73;9.73;;;15.00;99.90;;;;;;5073875;28;20052;-42
2022/06/17 06:06:30;;;;;;;11.73;9.70;;;15.30;99.90;;;;;;5073924;28;20093;-44
2022/06/17 06:08:57;;;;;;;13.68;9.85;;;15.50;99.90;;;;;;5074896;28;20036;-41
2022/06/17 06:11:23;;;;;;;13.13;9.95;;;15.40;99.90;;;;;;5075960;28;20028;-42
2022/06/17 06:13:49;;;;;;;12.15;9.65;;;15.20;99.90;;;;;;5075108;28;20092;-42
2022/06/17 06:16:15;;;;;;;15.05;10.07;;;15.70;99.90;;;;;;5074648;28;20036;-42
2022/06/17 06:18:47;;;;;;;14.95;9.95;;;15.50;99.90;;;;;;5075879;28;20731;-42
2022/06/17 06:21:14;;;;;;;13.05;9.32;;;17.30;99.90;;;;;;5075084;28;20040;-43
2022/06/17 06:23:43;;;;;;;13.55;10.85;;;16.10;99.90;;;;;;5074723;28;20048;-42
2022/06/17 06:26:16;;;;;;;20.17;10.07;;;17.90;99.90;;;;;;5074516;28;20089;-43
2022/06/17 06:28:41;;;;;;;14.02;8.77;;;15.80;99.90;;;;;;5075054;28;20040;-41
2022/06/17 06:31:20;;;;;;;17.08;9.77;;;17.00;99.90;;;;;;5075247;28;20043;-41
2022/06/17 06:33:45;;;;;;;15.40;9.50;;;16.30;99.90;;;;;;5074302;28;20856;-42
2022/06/17 06:36:11;;;;;;;12.07;9.50;;;16.20;99.90;;;;;;5072811;28;20119;-44
2022/06/17 06:38:37;;;;;;;16.77;9.45;;;16.50;99.90;;;;;;5072801;28;20036;-41
2022/06/17 06:41:03;;;;;;;13.55;8.90;;;16.50;99.90;;;;;;5072943;28;20083;-41
2022/06/17 06:43:29;;;;;;;12.32;8.50;;;16.50;99.90;;;;;;5071595;28;20028;-42
2022/06/17 06:45:58;;;;;;;12.50;8.45;;;16.80;99.90;;;;;;5073991;28;20043;-43
2022/06/17 06:48:26;;;;;;;14.10;8.98;;;16.90;99.90;;;;;;5070920;28;20063;-41
2022/06/17 06:50:52;;;;;;;14.95;8.38;;;17.00;99.90;;;;;;5073952;28;20154;-43
2022/06/17 06:53:18;;;;;;;13.32;8.85;;;17.30;99.90;;;;;;5074557;28;20166;-47
2022/06/17 06:55:44;;;;;;;11.65;7.45;;;17.30;99.90;;;;;;5072232;28;20528;-43
2022/06/17 06:58:16;;;;;;;13.35;7.80;;;17.50;99.90;;;;;;5074187;28;20044;-42
2022/06/17 07:00:45;;;;;;;9.73;7.20;;;19.80;99.90;;;;;;5072515;28;20040;-43
2022/06/17 07:03:11;;;;;;;11.02;7.72;;;17.60;99.90;;;;;;5073277;28;20670;-42
2022/06/17 07:05:42;;;;;;;12.88;8.02;;;17.60;99.90;;;;;;5072537;28;20619;-45
2022/06/17 07:08:11;;;;;;;12.23;7.65;;;17.90;99.90;;;;;;5073761;28;20090;-43
2022/06/17 07:10:38;;;;;;;14.18;8.27;;;18.50;99.90;;;;;;5073319;28;20043;-43
2022/06/17 07:13:08;;;;;;;13.98;8.18;;;17.70;99.90;;;;;;5072099;28;20044;-43
2022/06/17 07:15:35;;;;;;;11.23;8.00;;;18.90;99.90;;;;;;5067954;28;20656;-45
2022/06/17 07:18:29;;;;;;;13.77;7.72;;;20.30;99.90;;;;;;5072621;28;20042;-43
2022/06/17 07:20:59;;;;;;;10.52;6.90;;;17.90;99.90;;;;;;5008753;28;20048;-43
2022/06/17 07:23:36;;;;;;;11.88;6.93;;;17.90;99.90;;;;;;5011083;28;20041;-43
2022/06/17 07:26:23;;;;;;;11.13;6.63;;;18.20;99.90;;;;;;5010765;28;20053;-45
2022/06/17 07:28:54;;;;;;;14.68;6.70;;;18.60;99.90;;;;;;5009328;28;20096;-43
2022/06/17 07:31:22;;;;;;;11.43;7.20;;;18.70;99.90;;;;;;5009681;28;20987;-41
2022/06/17 07:33:48;;;;;;;10.05;6.75;;;18.90;99.90;;;;;;5010744;28;20048;-43
2022/06/17 07:41:53;;;;;;;10.93;6.55;;;19.00;99.90;;;;;;5011469;28;20049;-42
2022/06/17 07:44:19;;;;;;;12.25;7.00;;;20.40;99.90;;;;;;5010859;28;20054;-44
2022/06/17 07:46:47;;;;;;;10.48;7.35;;;19.30;99.90;;;;;;4994011;28;20203;-46
2022/06/17 07:49:13;;;;;;;16.98;7.25;;;19.30;99.90;;;;;;5010866;28;20454;-44
2022/06/17 07:51:39;;;;;;;12.93;7.35;;;19.50;99.90;;;;;;5010949;28;20092;-43
2022/06/17 07:54:07;;;;;;;11.10;6.32;;;19.50;99.90;;;;;;5012979;28;20163;-46
2022/06/17 07:56:32;;;;;;;11.85;6.57;;;19.30;99.90;;;;;;4993754;28;20127;-42
2022/06/17 07:58:58;;;;;;;15.55;6.80;;;19.60;99.90;;;;;;5068178;28;20151;-45
2022/06/17 08:01:24;;;;;;;9.70;5.55;;;21.30;99.90;;;;;;5072612;28;21120;-43
2022/06/17 08:03:52;;;;;;;9.82;6.43;;;19.60;99.90;;;;;;5071087;28;20134;-42
2022/06/17 08:06:18;;;;;;;11.02;5.97;;;20.40;99.90;;;;;;5071392;28;20081;-46
2022/06/17 08:08:45;;;;;;;11.02;6.00;;;19.80;99.90;;;;;;5072884;28;20100;-47
2022/06/17 08:11:13;;;;;;;9.85;6.00;;;20.00;99.90;;;;;;5072766;28;20047;-44
2022/06/17 08:13:39;;;;;;;9.65;5.90;;;20.70;99.90;;;;;;5069921;28;21083;-44
2022/06/17 08:16:07;;;;;;;8.52;5.78;;;23.50;99.90;;;;;;5071394;28;20064;-45
2022/06/17 08:18:34;;;;;;;11.10;4.68;;;23.00;99.90;;;;;;5072724;28;20531;-46
2022/06/17 08:21:00;;;;;;;8.75;4.88;;;24.10;99.90;;;;;;5071408;28;20487;-45
2022/06/17 08:23:26;;;;;;;11.55;5.22;;;24.20;99.90;;;;;;5072165;28;20035;-44
2022/06/17 08:25:52;;;;;;;10.43;4.85;;;23.80;99.90;;;;;;5072625;28;20059;-46
2022/06/17 08:28:19;;;;;;;11.20;5.45;;;24.60;99.90;;;;;;5072656;28;20535;-44
2022/06/17 08:30:51;;;;;;;10.20;4.88;;;23.20;99.90;;;;;;5071114;28;20044;-44
2022/06/17 08:33:19;;;;;;;8.15;4.97;;;23.20;99.90;;;;;;5071198;28;20500;-44
2022/06/17 08:35:48;;;;;;;10.40;4.43;;;20.80;99.90;;;;;;5071950;28;20684;-45
2022/06/17 08:38:16;;;;;;;8.82;5.57;;;22.70;99.90;;;;;;5071379;28;20160;-45
2022/06/17 08:40:54;;;;;;;10.52;5.03;;;22.30;99.90;;;;;;5071173;28;20048;-47
2022/06/17 08:43:38;;;;;;;11.88;5.10;;;22.20;99.90;;;;;;5071397;28;20047;-49
2022/06/17 08:46:06;;;;;;;8.73;4.78;;;22.20;99.90;;;;;;5070482;28;20046;-49
2022/06/17 08:48:41;;;;;;;8.98;4.68;;;22.90;99.90;;;;;;5072221;28;20465;-43
2022/06/17 08:51:36;;;;;;;10.05;4.82;;;21.80;99.90;;;;;;5072290;28;20040;-46
2022/06/17 08:54:29;;;;;;;8.85;4.50;;;21.70;99.90;;;;;;5071351;28;20473;-44
2022/06/17 08:57:00;;;;;;;9.73;5.22;;;21.60;99.90;;;;;;5072404;28;20052;-44
2022/06/17 08:59:45;;;;;;;9.30;4.85;;;21.40;99.90;;;;;;5072361;28;20492;-46
2022/06/17 09:02:39;;;;;;;9.02;4.78;;;21.60;99.90;;;;;;5074050;28;20032;-48
2022/06/17 09:05:31;;;;;;;10.38;5.10;;;21.40;99.90;;;;;;5072399;28;20058;-48
2022/06/17 09:08:16;;;;;;;;;;;21.40;99.90;;;;;;5073493;28;20177;-45
2022/06/17 09:11:20;;;;;;;9.82;5.43;;;21.30;99.90;;;;;;5073042;28;19927;-49
2022/06/17 09:14:07;;;;;;;11.77;5.85;;;21.40;99.90;;;;;;4974840;28;20046;-45
2022/06/17 09:16:40;;;;;;;10.25;5.38;;;21.30;99.90;;;;;;4973325;28;20077;-44
2022/06/17 09:19:07;;;;;;;10.68;5.15;;;22.10;99.90;;;;;;4974455;28;20047;-44
2022/06/17 09:21:49;;;;;;;9.90;5.53;;;21.70;99.90;;;;;;4980709;28;20050;-45
2022/06/17 09:24:20;;;;;;;;;;;21.90;99.90;;;;;;4979475;28;20046;-49
2022/06/17 09:26:57;;;;;;;10.90;5.53;;;21.90;99.90;;;;;;4979875;28;19959;-46
2022/06/17 09:29:35;;;;;;;7.63;5.18;;;22.00;99.90;;;;;;4976987;28;20201;-45
2022/06/17 09:32:26;;;;;;;9.48;4.97;;;22.20;99.90;;;;;;4976175;28;20035;-45
2022/06/17 09:35:04;;;;;;;8.07;4.38;;;22.10;99.90;;;;;;4978852;28;20100;-47
2022/06/17 09:37:51;;;;;;;8.35;4.18;;;22.50;99.90;;;;;;4977636;28;20104;-48
2022/06/17 09:40:26;;;;;;;7.35;4.18;;;22.60;99.90;;;;;;4977227;28;20051;-45
2022/06/17 09:43:03;;;;;;;9.48;4.50;;;22.70;99.90;;;;;;4978709;28;20116;-45
2022/06/17 09:45:36;;;;;;;13.27;4.20;;;22.90;99.90;;;;;;4976871;28;20599;-44
2022/06/17 09:48:08;;;;;;;9.60;4.10;;;22.80;99.90;;;;;;5037253;28;20055;-47
2022/06/17 09:50:50;;;;;;;7.40;4.07;;;22.60;99.90;;;;;;5074365;28;20032;-48
2022/06/17 09:53:32;;;;;;;12.45;4.82;;;22.60;99.90;;;;;;5076452;28;20040;-48
2022/06/17 09:56:17;;;;;;;;;;;22.70;99.90;;;;;;5075718;28;20037;-45
2022/06/17 09:58:55;;;;;;;10.93;3.92;;;22.60;99.90;;;;;;5074459;28;19954;-46
2022/06/17 10:01:24;;;;;;;7.65;4.15;;;22.70;99.90;;;;;;5074819;28;20040;-49
2022/06/17 10:03:50;;;;;;;11.93;4.28;;;22.70;99.90;;;;;;5074614;28;20040;-43
2022/06/17 10:06:57;;;;;;;11.70;4.40;;;22.70;99.90;;;;;;5075204;28;20572;-47
2022/06/17 10:09:41;;;;;;;9.55;3.83;;;22.70;99.90;;;;;;5011331;28;20120;-45
2022/06/17 10:12:21;;;;;;;11.27;4.15;;;22.50;99.90;;;;;;5011510;28;20128;-48
2022/06/17 10:15:02;;;;;;;9.65;3.72;;;22.60;99.90;;;;;;5012235;28;20382;-44
2022/06/17 10:21:17;;;;;;;8.80;4.55;;;22.60;99.90;;;;;;5012052;28;20187;-44
2022/06/17 10:24:06;;;;;;;9.10;4.75;;;22.40;99.90;;;;;;5011373;28;20053;-49
2022/06/17 10:26:31;;;;;;;11.00;5.40;;;22.50;99.90;;;;;;5012070;28;20072;-48
2022/06/17 10:29:22;;;;;;;8.90;5.38;;;22.50;99.90;;;;;;5010806;28;20045;-48
2022/06/17 10:31:48;;;;;;;10.60;6.10;;;23.00;99.90;;;;;;5011210;28;20049;-45
2022/06/17 10:34:21;;;;;;;13.63;5.68;;;22.80;99.90;;;;;;5012351;28;20068;-48
2022/06/17 10:36:50;;;;;;;12.38;5.90;;;23.00;99.90;;;;;;5011320;28;20053;-48
2022/06/17 10:39:21;;;;;;;9.18;6.00;;;23.10;99.90;;;;;;5012230;28;20063;-48
2022/06/17 10:41:49;;;;;;;13.10;6.32;;;23.10;99.90;;;;;;5010559;28;20054;-47
2022/06/17 10:44:18;;;;;;;12.75;6.47;;;23.30;99.90;;;;;;5064743;28;20052;-49
2022/06/17 10:46:49;;;;;;;12.10;6.35;;;23.20;99.90;;;;;;5073866;28;20251;-46
2022/06/17 10:49:34;;;;;;;13.80;5.80;;;23.60;99.90;;;;;;5074092;28;20203;-45
2022/06/17 10:52:04;;;;;;;11.32;6.60;;;23.60;99.90;;;;;;5073408;28;20036;-45
2022/06/17 10:54:34;;;;;;;9.65;5.70;;;23.60;99.90;;;;;;5075226;28;20036;-46
2022/06/17 10:57:06;;;;;;;8.82;5.55;;;23.80;99.90;;;;;;5072896;28;20346;-48
2022/06/17 10:59:36;;;;;;;11.40;6.38;;;23.90;99.90;;;;;;5073446;28;20473;-45
2022/06/17 11:02:03;;;;;;;9.10;5.73;;;23.90;99.90;;;;;;5072532;28;20120;-47
2022/06/17 11:04:35;;;;;;;13.00;5.97;;;24.00;99.90;;;;;;5073136;28;20550;-47
2022/06/17 11:07:03;;;;;;;;;;;24.00;99.90;;;;;;5073226;28;20044;-47
2022/06/17 11:09:45;;;;;;;10.73;5.20;;;23.90;99.90;;;;;;5072517;28;20762;-47
2022/06/17 11:12:31;;;;;;;;;;;24.10;99.90;;;;;;5074235;28;20058;-47
2022/06/17 11:15:05;;;;;;;8.70;4.70;;;23.90;99.90;;;;;;5010786;28;20014;-46
2022/06/17 11:17:41;;;;;;;8.70;5.15;;;24.10;99.90;;;;;;5009995;28;20823;-48
2022/06/17 11:20:23;;;;;;;10.45;4.43;;;24.20;99.90;;;;;;5009326;28;20573;-48
2022/06/17 11:22:56;;;;;;;8.80;4.07;;;24.40;99.90;;;;;;5010466;28;20051;-49
2022/06/17 11:25:26;;;;;;;6.70;3.67;;;24.50;99.90;;;;;;5010053;28;20045;-49
2022/06/17 11:27:57;;;;;;;7.28;3.85;;;25.10;99.90;;;;;;5010344;28;20044;-47
2022/06/17 11:30:25;;;;;;;7.80;3.10;;;25.40;99.90;;;;;;5011315;28;20068;-49
2022/06/17 11:32:51;;;;;;;7.45;3.63;;;26.00;99.90;;;;;;5010184;28;20533;-46
2022/06/17 11:35:44;;;;;;;6.68;3.42;;;27.50;99.90;;;;;;5009546;28;20577;-48
2022/06/17 11:38:14;;;;;;;11.20;3.55;;;26.60;99.90;;;;;;5008029;28;20126;-47
2022/06/17 11:40:49;;;;;;;8.75;3.05;;;26.90;99.90;;;;;;5008704;28;20076;-48
2022/06/17 11:43:44;;;;;;;6.90;3.30;;;26.70;99.90;;;;;;5009483;28;20048;-49
2022/06/17 11:46:18;;;;;;;12.05;4.72;;;27.30;99.90;;;;;;5009624;28;20053;-49
2022/06/17 11:48:56;;;;;;;9.50;3.60;;;27.30;99.90;;;;;;5009330;28;20041;-46
2022/06/17 11:51:27;;;;;;;13.32;4.07;;;27.20;99.90;;;;;;5006098;28;20056;-47
2022/06/17 11:53:58;;;;;;;9.68;3.47;;;27.50;99.90;;;;;;5071908;28;20036;-45
2022/06/17 11:56:34;;;;;;;7.47;3.70;;;27.20;99.90;;;;;;5073230;28;20129;-47
2022/06/17 11:59:07;;;;;;;6.85;3.20;;;27.20;99.90;;;;;;5073512;28;20046;-49
2022/06/17 12:01:35;;;;;;;7.95;3.45;;;27.40;99.90;;;;;;5073535;28;20219;-49
2022/06/17 12:04:01;;;;;;;10.85;3.50;;;27.20;99.90;;;;;;5073513;28;20124;-45
2022/06/17 12:06:30;;;;;;;9.27;3.58;;;27.20;99.90;;;;;;5073116;28;21066;-50
2022/06/17 12:09:29;;;;;;;6.90;2.92;;;27.10;99.90;;;;;;5073987;28;20067;-47
2022/06/17 12:12:10;;;;;;;5.18;3.03;;;27.30;99.90;;;;;;5072167;28;20565;-54
2022/06/17 12:14:49;;;;;;;13.50;3.20;;;27.20;99.90;;;;;;5073366;28;20055;-49
2022/06/17 12:17:17;;;;;;;6.97;2.88;;;26.90;99.90;;;;;;5072356;28;20040;-48
2022/06/17 12:19:43;;;;;;;6.13;3.03;;;27.80;99.90;;;;;;5072350;28;20035;-49
2022/06/17 12:22:45;;;;;;;8.00;2.92;;;27.60;99.90;;;;;;5071584;28;20042;-48
2022/06/17 12:25:37;;;;;;;7.40;2.72;;;27.70;99.90;;;;;;5071613;28;20036;-49
2022/06/17 12:28:07;;;;;;;;;;;27.70;99.90;;;;;;5073230;28;20036;-48
2022/06/17 12:30:47;;;;;;;10.95;2.88;;;27.30;99.90;;;;;;5071292;28;19997;-48
2022/06/17 12:33:31;;;;;;;10.07;2.90;;;27.40;99.90;;;;;;5070666;28;20404;-47
2022/06/17 12:36:23;;;;;;;6.57;2.83;;;27.10;98.00;;;;;;5070903;28;20077;-48
2022/06/17 12:39:29;;;;;;;9.45;3.10;;;27.00;99.90;;;;;;5006587;28;20054;-48
2022/06/17 12:42:19;;;;;;;14.93;3.70;;;27.00;99.90;;;;;;5007638;28;20038;-47
2022/06/17 12:45:03;;;;;;;9.93;2.72;;;27.10;99.70;;;;;;5006839;28;20037;-48
2022/06/17 12:48:03;;;;;;;7.93;2.42;;;27.00;97.90;;;;;;5007972;28;20041;-49
2022/06/17 12:54:15;;;;;;;7.22;2.72;;;26.90;98.90;;;;;;5006726;28;20056;-47
2022/06/17 12:56:52;;;;;;;10.15;3.45;;;27.10;99.90;;;;;;5007738;28;21595;-50
2022/06/17 12:59:39;;;;;;;6.05;2.83;;;26.80;99.30;;;;;;5008317;28;20604;-47
2022/06/17 13:02:13;;;;;;;10.93;2.75;;;26.70;99.70;;;;;;5008933;28;20923;-48
2022/06/17 13:04:43;;;;;;;7.20;2.30;;;26.80;98.90;;;;;;5008507;28;20053;-47
2022/06/17 13:07:08;;;;;;;14.07;2.58;;;26.70;99.40;;;;;;5008786;28;20418;-48
2022/06/17 13:09:34;;;;;;;9.35;2.80;;;26.20;97.10;;;;;;5008826;28;20082;-46
2022/06/17 13:12:12;;;;;;;7.43;2.30;;;26.40;97.80;;;;;;5007932;28;20048;-49
2022/06/17 13:15:07;;;;;;;10.50;2.75;;;26.20;97.50;;;;;;5009861;28;20046;-49
2022/06/17 13:17:42;;;;;;;8.63;2.63;;;26.10;96.70;;;;;;5002283;28;20144;-49
2022/06/17 13:20:16;;;;;;;4.97;2.45;;;25.90;97.70;;;;;;5002939;28;20045;-47
2022/06/17 13:22:52;;;;;;;6.75;2.65;;;25.70;98.10;;;;;;5005785;28;20061;-49
2022/06/17 13:25:31;;;;;;;7.00;2.40;;;25.70;97.30;;;;;;5007050;28;20056;-49
2022/06/17 13:28:22;;;;;;;6.10;2.35;;;25.80;97.50;;;;;;5008503;28;20052;-47